sensor_id;sensor_type;location;lat;lon;timestamp;temperature;humidity
32728;DHT22;55292;51.844;19.246;2023-01-26T00:04:18;0.90;99.90
32728;DHT22;55292;51.844;19.246;2023-01-26T00:09:21;1.00;99.90
32728;DHT22;55292;51.844;19.246;2023-01-26T00:14:23;1.10;99.90
32728;DHT22;55292;51.844;19.246;2023-01-26T00:19:26;0.90;99.90
32728;DHT22;55292;51.844;19.246;2023-01-26T00:24:28;0.80;99.90
32728;DHT22;55292;51.844;19.246;2023-01-26T00:29:31;0.90;99.90
32728;DHT22;55292;51.844;19.246;2023-01-26T00:34:34;0.80;99.90
32728;DHT22;55292;51.844;19.246;2023-01-26T00:39:37;0.80;99.90
32728;DHT22;55292;51.844;19.246;2023-01-26T00:44:41;0.90;99.90
32728;DHT22;55292;51.844;19.246;2023-01-26T00:49:44;1.00;99.90
32728;DHT22;55292;51.844;19.246;2023-01-26T00:54:47;0.80;99.90
32728;DHT22;55292;51.844;19.246;2023-01-26T00:59:49;0.60;99.90
32728;DHT22;55292;51.844;19.246;2023-01-26T01:04:51;0.70;99.90
32728;DHT22;55292;51.844;19.246;2023-01-26T01:09:54;0.70;99.90
32728;DHT22;55292;51.844;19.246;2023-01-26T01:14:56;0.80;99.90
32728;DHT22;55292;51.844;19.246;2023-01-26T01:19:59;0.90;99.90
32728;DHT22;55292;51.844;19.246;2023-01-26T01:25:02;1.00;99.90
32728;DHT22;55292;51.844;19.246;2023-01-26T01:30:05;1.00;99.90
32728;DHT22;55292;51.844;19.246;2023-01-26T01:35:09;1.00;99.90
32728;DHT22;55292;51.844;19.246;2023-01-26T01:40:12;0.90;99.90
32728;DHT22;55292;51.844;19.246;2023-01-26T01:45:41;0.80;99.90
32728;DHT22;55292;51.844;19.246;2023-01-26T01:50:44;0.80;99.90
32728;DHT22;55292;51.844;19.246;2023-01-26T01:55:47;0.80;99.90
32728;DHT22;55292;51.844;19.246;2023-01-26T02:00:50;1.00;99.90
32728;DHT22;55292;51.844;19.246;2023-01-26T02:06:14;1.00;99.90
32728;DHT22;55292;51.844;19.246;2023-01-26T02:11:39;1.00;99.90
32728;DHT22;55292;51.844;19.246;2023-01-26T02:16:43;1.00;99.90
32728;DHT22;55292;51.844;19.246;2023-01-26T02:21:47;0.80;99.90
32728;DHT22;55292;51.844;19.246;2023-01-26T02:26:52;0.90;99.90
32728;DHT22;55292;51.844;19.246;2023-01-26T02:31:56;1.00;99.90
32728;DHT22;55292;51.844;19.246;2023-01-26T02:36:59;0.90;99.90
32728;DHT22;55292;51.844;19.246;2023-01-26T02:42:03;0.80;99.90
32728;DHT22;55292;51.844;19.246;2023-01-26T02:47:24;0.90;99.90
32728;DHT22;55292;51.844;19.246;2023-01-26T02:52:28;0.90;99.90
32728;DHT22;55292;51.844;19.246;2023-01-26T02:57:41;0.90;99.90
32728;DHT22;55292;51.844;19.246;2023-01-26T03:02:45;0.70;99.90
32728;DHT22;55292;51.844;19.246;2023-01-26T03:07:48;0.70;99.90
32728;DHT22;55292;51.844;19.246;2023-01-26T03:12:53;0.80;99.90
32728;DHT22;55292;51.844;19.246;2023-01-26T03:18:04;0.80;99.90
32728;DHT22;55292;51.844;19.246;2023-01-26T03:23:33;0.90;99.90
32728;DHT22;55292;51.844;19.246;2023-01-26T03:28:56;0.90;99.90
32728;DHT22;55292;51.844;19.246;2023-01-26T03:33:58;0.90;99.90
32728;DHT22;55292;51.844;19.246;2023-01-26T03:39:01;0.80;99.90
32728;DHT22;55292;51.844;19.246;2023-01-26T03:44:04;0.60;99.90
32728;DHT22;55292;51.844;19.246;2023-01-26T03:49:25;0.50;99.90
32728;DHT22;55292;51.844;19.246;2023-01-26T03:54:46;0.70;99.90
32728;DHT22;55292;51.844;19.246;2023-01-26T04:00:08;0.70;99.90
32728;DHT22;55292;51.844;19.246;2023-01-26T04:05:13;0.70;99.90
32728;DHT22;55292;51.844;19.246;2023-01-26T04:10:37;0.80;99.90
32728;DHT22;55292;51.844;19.246;2023-01-26T04:15:39;3.40;99.90
32728;DHT22;55292;51.844;19.246;2023-01-26T04:21:02;0.70;99.90
32728;DHT22;55292;51.844;19.246;2023-01-26T04:26:30;0.60;99.90
32728;DHT22;55292;51.844;19.246;2023-01-26T04:31:39;0.60;99.90
32728;DHT22;55292;51.844;19.246;2023-01-26T04:36:42;0.60;99.90
32728;DHT22;55292;51.844;19.246;2023-01-26T04:41:44;0.50;99.90
32728;DHT22;55292;51.844;19.246;2023-01-26T04:46:49;0.70;99.90
32728;DHT22;55292;51.844;19.246;2023-01-26T04:51:52;0.80;99.90
32728;DHT22;55292;51.844;19.246;2023-01-26T04:56:55;0.70;99.90
32728;DHT22;55292;51.844;19.246;2023-01-26T05:01:58;0.80;99.90
32728;DHT22;55292;51.844;19.246;2023-01-26T05:07:00;0.70;99.90
32728;DHT22;55292;51.844;19.246;2023-01-26T05:12:03;0.80;99.90
32728;DHT22;55292;51.844;19.246;2023-01-26T05:17:47;0.80;99.90
32728;DHT22;55292;51.844;19.246;2023-01-26T05:23:25;0.80;99.90
32728;DHT22;55292;51.844;19.246;2023-01-26T05:29:06;0.90;99.90
32728;DHT22;55292;51.844;19.246;2023-01-26T05:34:09;0.90;99.90
32728;DHT22;55292;51.844;19.246;2023-01-26T05:39:12;0.90;99.90
32728;DHT22;55292;51.844;19.246;2023-01-26T05:44:14;0.90;99.90
32728;DHT22;55292;51.844;19.246;2023-01-26T05:49:24;0.80;99.90
32728;DHT22;55292;51.844;19.246;2023-01-26T05:54:29;0.80;99.90
32728;DHT22;55292;51.844;19.246;2023-01-26T05:59:31;0.60;99.90
32728;DHT22;55292;51.844;19.246;2023-01-26T06:04:34;0.60;99.90
32728;DHT22;55292;51.844;19.246;2023-01-26T06:09:38;0.70;99.90
32728;DHT22;55292;51.844;19.246;2023-01-26T06:14:47;0.80;99.90
32728;DHT22;55292;51.844;19.246;2023-01-26T06:19:50;0.80;99.90
32728;DHT22;55292;51.844;19.246;2023-01-26T06:24:53;0.80;99.90
32728;DHT22;55292;51.844;19.246;2023-01-26T06:29:57;0.80;99.90
32728;DHT22;55292;51.844;19.246;2023-01-26T06:35:01;0.80;99.90
32728;DHT22;55292;51.844;19.246;2023-01-26T06:40:05;0.80;99.90
32728;DHT22;55292;51.844;19.246;2023-01-26T06:45:09;0.80;99.90
32728;DHT22;55292;51.844;19.246;2023-01-26T06:50:14;0.90;99.90
32728;DHT22;55292;51.844;19.246;2023-01-26T06:55:42;0.90;99.90
32728;DHT22;55292;51.844;19.246;2023-01-26T07:01:32;0.90;99.90
32728;DHT22;55292;51.844;19.246;2023-01-26T07:06:33;0.80;99.90
32728;DHT22;55292;51.844;19.246;2023-01-26T07:11:36;0.80;99.90
32728;DHT22;55292;51.844;19.246;2023-01-26T07:16:38;0.80;99.90
32728;DHT22;55292;51.844;19.246;2023-01-26T07:21:41;0.80;99.90
32728;DHT22;55292;51.844;19.246;2023-01-26T07:26:44;0.90;99.90
32728;DHT22;55292;51.844;19.246;2023-01-26T07:31:46;1.00;99.90
32728;DHT22;55292;51.844;19.246;2023-01-26T07:36:51;1.10;99.90
32728;DHT22;55292;51.844;19.246;2023-01-26T07:41:54;1.20;99.90
32728;DHT22;55292;51.844;19.246;2023-01-26T07:47:14;1.30;99.90
32728;DHT22;55292;51.844;19.246;2023-01-26T07:52:16;1.40;99.90
32728;DHT22;55292;51.844;19.246;2023-01-26T07:57:19;1.40;99.90
32728;DHT22;55292;51.844;19.246;2023-01-26T08:02:22;1.40;99.90
32728;DHT22;55292;51.844;19.246;2023-01-26T08:07:24;1.50;99.90
32728;DHT22;55292;51.844;19.246;2023-01-26T08:12:28;1.60;99.90
32728;DHT22;55292;51.844;19.246;2023-01-26T08:17:30;1.70;99.90
32728;DHT22;55292;51.844;19.246;2023-01-26T08:22:35;1.70;99.90
32728;DHT22;55292;51.844;19.246;2023-01-26T08:27:37;1.70;99.90
32728;DHT22;55292;51.844;19.246;2023-01-26T08:32:40;1.60;99.90
32728;DHT22;55292;51.844;19.246;2023-01-26T08:37:42;1.60;99.90
32728;DHT22;55292;51.844;19.246;2023-01-26T08:42:45;1.50;99.90
32728;DHT22;55292;51.844;19.246;2023-01-26T08:47:49;1.60;99.90
32728;DHT22;55292;51.844;19.246;2023-01-26T08:52:54;1.60;99.90
32728;DHT22;55292;51.844;19.246;2023-01-26T08:57:58;1.70;99.90
32728;DHT22;55292;51.844;19.246;2023-01-26T09:03:03;1.80;99.90
32728;DHT22;55292;51.844;19.246;2023-01-26T09:08:08;1.90;99.90
32728;DHT22;55292;51.844;19.246;2023-01-26T09:13:12;1.80;99.90
32728;DHT22;55292;51.844;19.246;2023-01-26T09:18:14;1.70;99.90
32728;DHT22;55292;51.844;19.246;2023-01-26T09:23:17;1.80;99.90
32728;DHT22;55292;51.844;19.246;2023-01-26T09:28:19;1.90;99.90
32728;DHT22;55292;51.844;19.246;2023-01-26T09:33:22;1.90;99.90
32728;DHT22;55292;51.844;19.246;2023-01-26T09:38:26;1.90;99.90
32728;DHT22;55292;51.844;19.246;2023-01-26T09:43:39;1.90;99.90
32728;DHT22;55292;51.844;19.246;2023-01-26T09:49:07;1.90;99.90
32728;DHT22;55292;51.844;19.246;2023-01-26T09:59:29;1.90;99.90
32728;DHT22;55292;51.844;19.246;2023-01-26T10:04:36;2.00;99.90
32728;DHT22;55292;51.844;19.246;2023-01-26T10:09:47;2.00;99.90
32728;DHT22;55292;51.844;19.246;2023-01-26T10:25:38;2.20;99.90
32728;DHT22;55292;51.844;19.246;2023-01-26T10:30:42;2.10;99.90
32728;DHT22;55292;51.844;19.246;2023-01-26T10:35:45;2.00;99.90
32728;DHT22;55292;51.844;19.246;2023-01-26T10:40:49;2.20;99.90
32728;DHT22;55292;51.844;19.246;2023-01-26T10:45:51;2.10;99.90
32728;DHT22;55292;51.844;19.246;2023-01-26T10:51:14;2.10;99.90
32728;DHT22;55292;51.844;19.246;2023-01-26T10:56:17;2.00;99.90
32728;DHT22;55292;51.844;19.246;2023-01-26T11:01:19;2.00;99.90
32728;DHT22;55292;51.844;19.246;2023-01-26T11:06:29;2.00;99.90
32728;DHT22;55292;51.844;19.246;2023-01-26T11:11:32;2.00;99.90
32728;DHT22;55292;51.844;19.246;2023-01-26T11:16:35;2.10;99.90
32728;DHT22;55292;51.844;19.246;2023-01-26T11:21:54;2.20;99.90
32728;DHT22;55292;51.844;19.246;2023-01-26T11:37:43;2.30;99.90
32728;DHT22;55292;51.844;19.246;2023-01-26T11:48:14;2.50;99.90
32728;DHT22;55292;51.844;19.246;2023-01-26T11:58:47;2.40;99.90
32728;DHT22;55292;51.844;19.246;2023-01-26T12:03:51;2.40;99.90
32728;DHT22;55292;51.844;19.246;2023-01-26T12:25:36;2.40;99.90
32728;DHT22;55292;51.844;19.246;2023-01-26T12:58:00;2.00;99.90
32728;DHT22;55292;51.844;19.246;2023-01-26T13:03:20;2.00;99.90
32728;DHT22;55292;51.844;19.246;2023-01-26T13:13:33;1.90;99.90
32728;DHT22;55292;51.844;19.246;2023-01-26T13:18:58;1.90;99.90
32728;DHT22;55292;51.844;19.246;2023-01-26T13:24:01;1.90;99.90
32728;DHT22;55292;51.844;19.246;2023-01-26T13:29:26;2.00;99.90
32728;DHT22;55292;51.844;19.246;2023-01-26T13:34:42;2.00;99.90
32728;DHT22;55292;51.844;19.246;2023-01-26T13:39:51;2.00;99.90
32728;DHT22;55292;51.844;19.246;2023-01-26T13:45:03;4.90;99.90
32728;DHT22;55292;51.844;19.246;2023-01-26T13:50:29;1.70;99.90
32728;DHT22;55292;51.844;19.246;2023-01-26T13:55:33;1.60;99.90
32728;DHT22;55292;51.844;19.246;2023-01-26T14:00:35;1.50;99.90
32728;DHT22;55292;51.844;19.246;2023-01-26T14:05:39;1.50;99.90
32728;DHT22;55292;51.844;19.246;2023-01-26T14:10:42;1.60;99.90
32728;DHT22;55292;51.844;19.246;2023-01-26T14:15:54;1.60;99.90
32728;DHT22;55292;51.844;19.246;2023-01-26T14:21:03;1.60;99.90
32728;DHT22;55292;51.844;19.246;2023-01-26T14:26:19;1.50;99.90
32728;DHT22;55292;51.844;19.246;2023-01-26T14:31:24;1.50;99.90
32728;DHT22;55292;51.844;19.246;2023-01-26T14:36:29;1.50;99.90
32728;DHT22;55292;51.844;19.246;2023-01-26T14:41:40;1.50;99.90
32728;DHT22;55292;51.844;19.246;2023-01-26T14:51:54;1.30;99.90
32728;DHT22;55292;51.844;19.246;2023-01-26T14:56:58;1.30;99.90
32728;DHT22;55292;51.844;19.246;2023-01-26T15:07:35;1.30;99.90
32728;DHT22;55292;51.844;19.246;2023-01-26T15:12:39;1.30;99.90
32728;DHT22;55292;51.844;19.246;2023-01-26T15:17:42;1.30;99.90
32728;DHT22;55292;51.844;19.246;2023-01-26T15:22:49;1.20;99.90
32728;DHT22;55292;51.844;19.246;2023-01-26T15:27:55;1.10;99.90
32728;DHT22;55292;51.844;19.246;2023-01-26T15:33:01;1.20;99.90
32728;DHT22;55292;51.844;19.246;2023-01-26T15:38:11;1.10;99.90
32728;DHT22;55292;51.844;19.246;2023-01-26T15:43:15;1.00;99.90
32728;DHT22;55292;51.844;19.246;2023-01-26T15:48:19;0.90;99.90
32728;DHT22;55292;51.844;19.246;2023-01-26T15:53:21;0.90;99.90
32728;DHT22;55292;51.844;19.246;2023-01-26T15:58:24;0.90;99.90
32728;DHT22;55292;51.844;19.246;2023-01-26T16:03:27;0.90;99.90
32728;DHT22;55292;51.844;19.246;2023-01-26T16:08:30;0.90;99.90
32728;DHT22;55292;51.844;19.246;2023-01-26T16:13:32;0.90;99.90
32728;DHT22;55292;51.844;19.246;2023-01-26T16:18:35;0.80;99.90
32728;DHT22;55292;51.844;19.246;2023-01-26T16:23:38;0.80;99.90
32728;DHT22;55292;51.844;19.246;2023-01-26T16:28:41;0.80;99.90
32728;DHT22;55292;51.844;19.246;2023-01-26T16:33:44;0.80;99.90
32728;DHT22;55292;51.844;19.246;2023-01-26T16:38:47;1.00;99.90
32728;DHT22;55292;51.844;19.246;2023-01-26T16:43:50;1.00;99.90
32728;DHT22;55292;51.844;19.246;2023-01-26T16:48:55;0.90;99.90
32728;DHT22;55292;51.844;19.246;2023-01-26T16:53:58;0.90;99.90
32728;DHT22;55292;51.844;19.246;2023-01-26T16:59:00;1.00;99.90
32728;DHT22;55292;51.844;19.246;2023-01-26T17:04:05;0.90;99.90
32728;DHT22;55292;51.844;19.246;2023-01-26T17:09:08;0.90;99.90
32728;DHT22;55292;51.844;19.246;2023-01-26T17:14:11;0.80;99.90
32728;DHT22;55292;51.844;19.246;2023-01-26T17:19:14;0.70;99.90
32728;DHT22;55292;51.844;19.246;2023-01-26T17:24:17;0.70;99.90
32728;DHT22;55292;51.844;19.246;2023-01-26T17:29:19;0.60;99.90
32728;DHT22;55292;51.844;19.246;2023-01-26T17:34:22;0.60;99.90
32728;DHT22;55292;51.844;19.246;2023-01-26T17:39:25;0.60;99.90
32728;DHT22;55292;51.844;19.246;2023-01-26T17:44:28;0.40;99.90
32728;DHT22;55292;51.844;19.246;2023-01-26T17:49:31;0.40;99.90
32728;DHT22;55292;51.844;19.246;2023-01-26T17:54:34;0.40;99.90
32728;DHT22;55292;51.844;19.246;2023-01-26T17:59:36;0.50;99.90
32728;DHT22;55292;51.844;19.246;2023-01-26T18:04:39;0.40;99.90
32728;DHT22;55292;51.844;19.246;2023-01-26T18:09:41;0.50;99.90
32728;DHT22;55292;51.844;19.246;2023-01-26T18:14:44;0.50;99.90
32728;DHT22;55292;51.844;19.246;2023-01-26T18:19:46;0.50;99.90
32728;DHT22;55292;51.844;19.246;2023-01-26T18:24:49;0.50;99.90
32728;DHT22;55292;51.844;19.246;2023-01-26T18:29:52;0.50;99.90
32728;DHT22;55292;51.844;19.246;2023-01-26T18:34:55;0.50;99.90
32728;DHT22;55292;51.844;19.246;2023-01-26T18:39:58;0.60;99.90
32728;DHT22;55292;51.844;19.246;2023-01-26T18:45:01;0.70;99.90
32728;DHT22;55292;51.844;19.246;2023-01-26T18:50:04;0.60;99.90
32728;DHT22;55292;51.844;19.246;2023-01-26T18:55:08;0.50;99.90
32728;DHT22;55292;51.844;19.246;2023-01-26T19:00:12;0.40;99.90
32728;DHT22;55292;51.844;19.246;2023-01-26T19:05:15;0.40;99.90
32728;DHT22;55292;51.844;19.246;2023-01-26T19:10:17;0.40;99.90
32728;DHT22;55292;51.844;19.246;2023-01-26T19:15:20;0.40;99.90
32728;DHT22;55292;51.844;19.246;2023-01-26T19:20:23;0.40;99.90
32728;DHT22;55292;51.844;19.246;2023-01-26T19:25:25;0.50;99.90
32728;DHT22;55292;51.844;19.246;2023-01-26T19:30:28;0.50;99.90
32728;DHT22;55292;51.844;19.246;2023-01-26T19:35:31;0.50;99.90
32728;DHT22;55292;51.844;19.246;2023-01-26T19:40:34;0.60;99.90
32728;DHT22;55292;51.844;19.246;2023-01-26T19:45:37;0.60;99.90
32728;DHT22;55292;51.844;19.246;2023-01-26T19:50:41;0.60;99.90
32728;DHT22;55292;51.844;19.246;2023-01-26T19:55:43;0.60;99.90
32728;DHT22;55292;51.844;19.246;2023-01-26T20:00:46;0.60;99.90
32728;DHT22;55292;51.844;19.246;2023-01-26T20:05:48;0.60;99.90
32728;DHT22;55292;51.844;19.246;2023-01-26T20:10:52;0.60;99.90
32728;DHT22;55292;51.844;19.246;2023-01-26T20:15:55;0.50;99.90
32728;DHT22;55292;51.844;19.246;2023-01-26T20:20:59;0.40;99.90
32728;DHT22;55292;51.844;19.246;2023-01-26T20:31:52;0.30;99.90
32728;DHT22;55292;51.844;19.246;2023-01-26T20:36:55;0.30;99.90
32728;DHT22;55292;51.844;19.246;2023-01-26T20:42:02;0.50;99.90
32728;DHT22;55292;51.844;19.246;2023-01-26T20:47:05;0.60;99.90
32728;DHT22;55292;51.844;19.246;2023-01-26T20:52:08;0.60;99.90
32728;DHT22;55292;51.844;19.246;2023-01-26T20:57:11;0.60;99.90
32728;DHT22;55292;51.844;19.246;2023-01-26T21:02:14;0.70;99.90
32728;DHT22;55292;51.844;19.246;2023-01-26T21:07:17;0.60;99.90
32728;DHT22;55292;51.844;19.246;2023-01-26T21:12:20;0.50;99.90
32728;DHT22;55292;51.844;19.246;2023-01-26T21:17:24;0.40;99.90
32728;DHT22;55292;51.844;19.246;2023-01-26T21:22:27;0.40;99.90
32728;DHT22;55292;51.844;19.246;2023-01-26T21:27:30;0.40;99.90
32728;DHT22;55292;51.844;19.246;2023-01-26T21:32:32;0.50;99.90
32728;DHT22;55292;51.844;19.246;2023-01-26T21:37:35;0.50;99.90
32728;DHT22;55292;51.844;19.246;2023-01-26T21:42:38;0.50;99.90
32728;DHT22;55292;51.844;19.246;2023-01-26T21:47:40;0.50;99.90
32728;DHT22;55292;51.844;19.246;2023-01-26T21:52:43;0.60;99.90
32728;DHT22;55292;51.844;19.246;2023-01-26T21:58:01;-0.60;99.90
32728;DHT22;55292;51.844;19.246;2023-01-26T22:03:23;0.60;99.90
32728;DHT22;55292;51.844;19.246;2023-01-26T22:08:28;0.50;99.90
32728;DHT22;55292;51.844;19.246;2023-01-26T22:13:34;0.40;99.90
32728;DHT22;55292;51.844;19.246;2023-01-26T22:18:37;0.40;99.90
32728;DHT22;55292;51.844;19.246;2023-01-26T22:23:41;0.40;99.90
32728;DHT22;55292;51.844;19.246;2023-01-26T22:28:48;0.50;99.90
32728;DHT22;55292;51.844;19.246;2023-01-26T22:33:52;0.50;99.90
32728;DHT22;55292;51.844;19.246;2023-01-26T22:38:57;0.50;99.90
32728;DHT22;55292;51.844;19.246;2023-01-26T22:44:00;0.60;99.90
32728;DHT22;55292;51.844;19.246;2023-01-26T22:49:03;0.60;99.90
32728;DHT22;55292;51.844;19.246;2023-01-26T22:54:06;0.60;99.90
32728;DHT22;55292;51.844;19.246;2023-01-26T22:59:08;0.50;99.90
32728;DHT22;55292;51.844;19.246;2023-01-26T23:04:11;0.50;99.90
32728;DHT22;55292;51.844;19.246;2023-01-26T23:09:14;0.40;99.90
32728;DHT22;55292;51.844;19.246;2023-01-26T23:14:17;0.40;99.90
32728;DHT22;55292;51.844;19.246;2023-01-26T23:19:20;0.40;99.90
32728;DHT22;55292;51.844;19.246;2023-01-26T23:24:22;0.40;99.90
32728;DHT22;55292;51.844;19.246;2023-01-26T23:29:25;0.30;99.90
32728;DHT22;55292;51.844;19.246;2023-01-26T23:34:28;0.30;99.90
32728;DHT22;55292;51.844;19.246;2023-01-26T23:39:30;0.30;99.90
32728;DHT22;55292;51.844;19.246;2023-01-26T23:44:33;0.50;99.90
32728;DHT22;55292;51.844;19.246;2023-01-26T23:49:35;0.50;99.90
32728;DHT22;55292;51.844;19.246;2023-01-26T23:54:38;0.60;99.90
32728;DHT22;55292;51.844;19.246;2023-01-26T23:59:40;0.50;99.90
